首页
METAR-TAF:

METAR-TAF

机场 :

河內, 越南

內排國際機場

纬度: 21-01N, 经度: 105-48E, 海拔: 6米

当前天气观测

该预报发布于22分钟前的22:00 UTC
风速6节,风向东转东北
温度 23°C
湿度 94%
气压 1010 hPa
能見度: 6000
多云层高于1400英尺

METAR: VVNB 252200Z 06006KT 6000 BKN014 23/22 Q1010 NOSIG

时间: 05:22 (22:22 UTC)

预报

该预报发布于5小时和22分钟前的17:00 UTC
预报有效从25日的 18点(UTC)到 26日的 18点(UTC)
风速7节,风向东北
能見度: 4000
散云层高于1700英尺
多云层高于3000英尺
轻雾
短暂存在
从 25日的 21点(UTC)到 26日的 01点(UTC)
能見度: 3500
散云层高于600英尺
少量云层高于2700英尺, 积雨云.
阴天层高于3000英尺
雷暴, 大雨
成为
从 26日的 01点(UTC)到 26日的 02点(UTC)
能見度: 6000
短暂存在
从 26日的 04点(UTC)到 26日的 07点(UTC)
风速15节,风向东转东南,有时为25节阵风
能見度: 2500
散云层高于800英尺
散云层高于2700英尺, 积雨云.
多云层高于3000英尺
雷暴, 大雨
成为
从 26日的 10点(UTC)到 26日的 12点(UTC)
能見度: 4000
多云层高于800英尺
阴天层高于3000英尺

TAF: VVNB 251700Z 2518/2618 05007KT 4000 BR SCT017 BKN030 TEMPO 2521/2601 3500 +TSRA SCT006 FEW027CB OVC030 BECMG 2601/2602 6000 NSW TEMPO 2604/2607 12015G25KT 2500 +TSRA SCT008 SCT027CB BKN030 BECMG 2610/2612 4000 RA BKN008 OVC030

超过4000个机场的气象观测和天气预报(METAR&TAF报告)。

可查询的气象台以黄色和红色小点在地图上表示。

将鼠标移到小点上方,可查看气象台名称。

然后点击查看天气观测和预报。

如需切换地图:点击带黑十字的绿色按钮放大地图;点击带横线的绿色按钮缩小地图;或者点击绿色箭头查看邻近地区的地图。


METAR-TAF: